Kiana, AK (99749)

4:42 AM AKDT on October 21, 2014 (GMT -0800)
Baker Memorial | Change Station
CLOSE
Current Station
Airport
Location: Kiana,
Elevation: 151 ft
Nearby Weather Stations

Elev 151 ft 66.98 °N, 160.44 °W | Updated 41 minutes ago

Overcast
Overcast
30 °F
Feels Like 24 °F
N
6
Wind Variable Wind from North

Today
High -- | Low -- °F
--% Chance of Precip.
Yesterday
High -- | Low -- °F
Precip. -- in
10:06 AM 6:43 PM
Waning Crescent, 6% visible
Pressure 29.64 in
Visibility 10.0 miles
Clouds Overcast 10000 ft
Windchill 24 °F
Dew Point 21 °F
Humidity 69%
Rainfall 0.00 in
Snow Depth Not available.
UV 0 out of 12
Pollen Not available.
Air Quality Not available.
Flu Activity Sporadic
METAR PAIK 211201Z AUTO 36005KT 10SM OVC100 M01/M06 A2951 RMK AO2 SLP036 T10111061 11006 21011 53014 FZRANO

More Conditions Fewer Conditions

Pressure 29.64 in
Visibility 10.0 miles
Clouds Overcast 10000 ft
Windchill 24 °F
Dew Point 21 °F
Humidity 69%
Rainfall 0.00 in
Snow Depth Not available.
UV 0 out of 12
Pollen Not available.
Air Quality Not available.
Flu Activity Sporadic
METAR PAIK 211201Z AUTO 36005KT 10SM OVC100 M01/M06 A2951 RMK AO2 SLP036 T10111061 11006 21011 53014 FZRANO

More Conditions Fewer Conditions

10-Day Weather Forecast

Almanac

Astronomy

Oct. 21, 2014 Rise Set
Actual Time 10:06 AM AKDT 6:43 PM AKDT
Civil Twilight 9:08 AM AKDT 7:41 PM AKDT
Nautical Twilight 8:04 AM AKDT 8:44 PM AKDT
Astronomical Twilight 7:01 AM AKDT 9:48 PM AKDT
Moon 7:08 AM AKDT 6:26 PM AKDT
Length of Visible Light 10h 33m
Length of Day
8h 37m
Tomorrow will be 7m 51s shorter.
Waning Crescent, 6% of the Moon is Illuminated
Today
Waning Crescent
Oct 23
New
Oct 30
First Quarter
Nov 6
Full
Nov 14
Last Quarter

Today's Extremes

State Highs State Lows

Community

WunderPhotos

Upload Photos

1,763,649 photos uploaded!

Nearby

Snow Depth

Station Depth Elevation
Rocky Point 2 in 500 ft
Gobblers Knob 1 in 2030 ft
Coldfoot 4 in 1040 ft
Atigun Pass 13 in 4800 ft
Imnaviat Creek 21 in 3050 ft

Earthquake Activity

City Distance Mag. Time & Date
No recent earthquake activity has been reported nearby.
Minimum magnitude displayed is 2.5.

Coastal Water Temperatures

Place Temperature
No Stations Reporting

Nearby Weather Stations